createdAt,value
2019-02-28T00:00:07.489Z,73.12
2019-02-28T00:02:39.611Z,73.67
2019-02-28T00:05:11.639Z,73.79
2019-02-28T00:07:43.236Z,74.25
2019-02-28T00:10:14.944Z,73.86
2019-02-28T00:12:48.082Z,73.76
2019-02-28T00:15:20.235Z,73.78
2019-02-28T00:17:52.165Z,73.86
2019-02-28T00:20:23.856Z,73.67
2019-02-28T00:22:55.794Z,73.30
2019-02-28T00:25:27.901Z,72.74
2019-02-28T00:27:59.677Z,72.35
2019-02-28T00:30:31.328Z,72.25
2019-02-28T00:33:02.949Z,72.00
2019-02-28T00:35:34.685Z,71.77
2019-02-28T00:38:06.410Z,71.56
2019-02-28T00:40:39.231Z,71.67
2019-02-28T00:43:10.764Z,72.08
2019-02-28T00:45:42.332Z,72.56
2019-02-28T00:48:14.033Z,72.52
2019-02-28T00:50:45.798Z,72.79
2019-02-28T00:53:17.564Z,73.02
2019-02-28T00:55:49.448Z,73.16
2019-02-28T00:58:21.070Z,73.42
2019-02-28T01:00:52.651Z,73.64
2019-02-28T01:03:27.439Z,73.80
2019-02-28T01:05:57.508Z,74.18
2019-02-28T01:08:29.402Z,74.54
2019-02-28T01:11:02.475Z,74.87
2019-02-28T01:13:34.174Z,75.23
2019-02-28T01:16:05.777Z,75.74
2019-02-28T01:18:37.438Z,75.80
2019-02-28T01:21:09.329Z,75.75
2019-02-28T01:23:41.113Z,75.36
2019-02-28T01:26:20.798Z,75.63
2019-02-28T01:28:52.677Z,76.86
2019-02-28T01:31:23.963Z,76.92
2019-02-28T01:33:56.009Z,77.57
2019-02-28T01:36:28.841Z,78.21
2019-02-28T01:39:00.639Z,79.08
2019-02-28T01:41:32.288Z,79.65
2019-02-28T01:44:04.115Z,80.04
2019-02-28T01:46:35.673Z,80.50
2019-02-28T01:49:07.357Z,81.02
2019-02-28T01:51:38.834Z,81.00
2019-02-28T01:54:10.445Z,80.67
2019-02-28T01:56:42.342Z,80.59
2019-02-28T01:59:13.947Z,80.76
2019-02-28T02:01:45.549Z,81.08
2019-02-28T02:04:17.247Z,81.06
2019-02-28T02:06:48.880Z,80.56
2019-02-28T02:09:20.807Z,80.74
2019-02-28T02:11:52.826Z,80.90
2019-02-28T02:14:24.415Z,80.98
2019-02-28T02:16:58.241Z,80.97
2019-02-28T02:19:29.266Z,81.34
2019-02-28T02:22:00.869Z,81.43
2019-02-28T02:24:32.522Z,80.95
2019-02-28T02:27:04.171Z,81.05
2019-02-28T02:29:37.051Z,81.34
2019-02-28T02:32:08.723Z,82.74
2019-02-28T02:34:40.736Z,83.22
2019-02-28T02:37:12.337Z,83.23
2019-02-28T02:39:44.009Z,83.70
2019-02-28T02:42:15.713Z,84.35
2019-02-28T02:44:47.504Z,84.10
2019-02-28T02:47:19.107Z,83.78
2019-02-28T02:49:55.985Z,83.70
2019-02-28T02:52:29.947Z,83.27
2019-02-28T02:54:57.688Z,82.83
2019-02-28T02:57:29.483Z,82.85
2019-02-28T03:00:00.993Z,83.01
2019-02-28T03:02:34.228Z,83.51
2019-02-28T03:05:06.086Z,83.27
2019-02-28T03:07:37.701Z,83.40
2019-02-28T03:10:10.473Z,83.70
2019-02-28T03:12:42.179Z,83.94
2019-02-28T03:15:15.490Z,84.27
2019-02-28T03:17:48.765Z,84.50
2019-02-28T03:20:20.587Z,84.62
2019-02-28T03:22:52.118Z,84.84
2019-02-28T03:25:28.101Z,84.99
2019-02-28T03:27:58.348Z,85.17
2019-02-28T03:30:33.314Z,85.47
2019-02-28T03:33:04.581Z,84.94
2019-02-28T03:35:43.362Z,85.59
2019-02-28T03:38:11.631Z,85.48
2019-02-28T03:40:44.233Z,85.10
2019-02-28T03:43:15.829Z,85.02
2019-02-28T03:45:48.185Z,85.13
2019-02-28T03:48:19.950Z,85.29
2019-02-28T03:50:55.399Z,86.36
2019-02-28T03:53:25.384Z,86.48
2019-02-28T03:55:57.290Z,86.79
2019-02-28T03:58:29.179Z,86.86
2019-02-28T04:01:00.788Z,87.13
2019-02-28T04:03:33.687Z,87.27
2019-02-28T04:06:06.251Z,87.31
2019-02-28T04:08:37.888Z,87.22
2019-02-28T04:11:09.554Z,87.26
2019-02-28T04:13:41.056Z,86.85
2019-02-28T04:16:12.584Z,86.61
2019-02-28T04:18:46.380Z,86.17
2019-02-28T04:21:17.501Z,86.12
2019-02-28T04:23:49.277Z,86.06
2019-02-28T04:26:21.067Z,85.87
2019-02-28T04:28:54.684Z,85.67
2019-02-28T04:31:26.054Z,85.25
2019-02-28T04:33:57.880Z,85.71
2019-02-28T04:36:35.419Z,84.97
2019-02-28T04:39:06.619Z,84.30
2019-02-28T04:41:38.369Z,80.87
2019-02-28T04:44:09.971Z,79.33
2019-02-28T04:46:41.834Z,78.58
2019-02-28T04:49:13.584Z,76.83
2019-02-28T04:51:47.402Z,74.42
2019-02-28T04:54:19.210Z,76.19
2019-02-28T04:56:50.678Z,77.38
2019-02-28T04:59:22.593Z,78.33
2019-02-28T05:01:54.133Z,78.47
2019-02-28T05:04:25.628Z,74.77
2019-02-28T05:06:57.113Z,71.25
2019-02-28T05:09:28.796Z,69.02
2019-02-28T05:12:04.961Z,67.87
2019-02-28T05:14:33.640Z,65.89
2019-02-28T05:17:05.351Z,65.45
2019-02-28T05:19:36.952Z,65.73
2019-02-28T05:22:08.712Z,65.23
2019-02-28T05:24:42.684Z,63.60
2019-02-28T05:27:15.310Z,62.00
2019-02-28T05:29:47.030Z,62.67
2019-02-28T05:32:18.688Z,64.04
2019-02-28T05:34:50.994Z,66.91
2019-02-28T05:37:23.691Z,68.90
2019-02-28T05:39:55.430Z,67.90
2019-02-28T05:42:27.030Z,68.30
2019-02-28T05:44:58.891Z,69.83
2019-02-28T05:47:32.452Z,71.60
2019-02-28T05:50:04.010Z,73.93
2019-02-28T05:52:35.703Z,75.53
2019-02-28T05:55:07.871Z,76.18
2019-02-28T05:57:43.257Z,75.89
2019-02-28T06:00:14.210Z,72.67
2019-02-28T06:02:46.031Z,70.87
2019-02-28T06:05:17.707Z,69.14
2019-02-28T06:07:49.579Z,68.05
2019-02-28T06:10:24.629Z,67.43
2019-02-28T06:12:54.576Z,67.10
2019-02-28T06:15:26.202Z,66.99
2019-02-28T06:17:58.143Z,66.22
2019-02-28T06:20:29.871Z,66.47
2019-02-28T06:23:01.612Z,66.67
2019-02-28T06:25:33.126Z,62.27
2019-02-28T06:28:04.610Z,58.43
2019-02-28T06:30:36.361Z,54.50
2019-02-28T06:33:08.017Z,51.45
2019-02-28T06:35:39.681Z,49.25
2019-02-28T06:38:11.403Z,48.09
2019-02-28T06:40:43.440Z,46.37
2019-02-28T06:43:15.076Z,44.27
2019-02-28T06:45:49.416Z,42.46
2019-02-28T06:48:25.814Z,41.11
2019-02-28T06:50:54.564Z,39.91
2019-02-28T06:53:27.144Z,40.20
2019-02-28T06:55:58.852Z,39.40
2019-02-28T06:58:33.276Z,37.71
2019-02-28T07:01:04.157Z,37.30
2019-02-28T07:03:38.798Z,37.26
2019-02-28T07:06:09.525Z,36.17
2019-02-28T07:08:41.208Z,34.97
2019-02-28T07:11:12.902Z,34.39
2019-02-28T07:13:44.548Z,32.76
2019-02-28T07:16:17.183Z,32.42
2019-02-28T07:18:52.924Z,31.65
2019-02-28T07:21:22.940Z,31.28
2019-02-28T07:23:55.667Z,30.21
2019-02-28T07:26:28.807Z,29.26
2019-02-28T07:29:01.197Z,29.31
2019-02-28T07:31:33.318Z,27.94
2019-02-28T07:34:05.159Z,26.66
2019-02-28T07:36:36.847Z,26.06
2019-02-28T07:39:10.147Z,25.03
2019-02-28T07:41:42.011Z,24.95
2019-02-28T07:44:13.701Z,24.47
2019-02-28T07:46:45.844Z,24.89
2019-02-28T07:49:17.686Z,25.60
2019-02-28T07:51:49.326Z,24.65
2019-02-28T07:54:21.367Z,24.08
2019-02-28T07:56:53.421Z,23.27
2019-02-28T07:59:25.063Z,22.96
2019-02-28T08:01:56.616Z,22.90
2019-02-28T08:04:28.158Z,22.69
2019-02-28T08:06:59.778Z,24.75
2019-02-28T08:09:32.848Z,22.95
2019-02-28T08:12:04.825Z,23.01
2019-02-28T08:14:36.992Z,21.44
2019-02-28T08:17:09.951Z,20.04
2019-02-28T09:20:41.338Z,15.14
2019-02-28T09:23:12.559Z,15.18
2019-02-28T09:25:44.534Z,14.32
2019-02-28T09:28:16.869Z,14.10
2019-02-28T09:30:49.060Z,14.36
2019-02-28T09:33:23.198Z,14.63
2019-02-28T09:35:55.230Z,14.31
2019-02-28T09:38:27.201Z,14.46
2019-02-28T09:41:01.362Z,15.94
2019-02-28T09:43:35.370Z,15.12
2019-02-28T09:46:09.013Z,14.97
2019-02-28T09:48:40.942Z,15.87
2019-02-28T09:51:12.769Z,15.94
2019-02-28T09:53:47.334Z,16.95
2019-02-28T09:56:19.496Z,20.65
2019-02-28T09:58:51.513Z,20.09
2019-02-28T10:01:24.461Z,25.21
2019-02-28T10:03:56.629Z,22.99
2019-02-28T10:06:28.534Z,24.63
2019-02-28T10:09:00.523Z,24.16
2019-02-28T10:11:32.638Z,23.04
2019-02-28T10:14:04.355Z,23.00
2019-02-28T10:16:39.139Z,21.51
2019-02-28T10:19:14.174Z,25.87
2019-02-28T10:21:51.911Z,27.53
2019-02-28T10:24:19.894Z,28.61
2019-02-28T10:26:52.393Z,26.45
2019-02-28T10:29:24.987Z,26.76
2019-02-28T10:31:56.960Z,24.50
2019-02-28T10:34:28.557Z,23.63
2019-02-28T10:37:00.255Z,24.53
2019-02-28T10:39:31.786Z,24.20
2019-02-28T10:42:05.164Z,27.04
2019-02-28T10:44:36.695Z,29.47
2019-02-28T10:47:09.123Z,25.62
2019-02-28T10:49:40.851Z,27.17
2019-02-28T10:52:13.901Z,28.49
2019-02-28T10:54:48.671Z,26.34
2019-02-28T10:57:19.319Z,25.92
2019-02-28T10:59:51.591Z,24.58
2019-02-28T11:02:23.653Z,25.69
2019-02-28T11:04:56.120Z,23.62
2019-02-28T11:07:30.936Z,21.95
2019-02-28T11:10:03.448Z,23.05
2019-02-28T11:12:35.026Z,21.86
2019-02-28T11:15:10.415Z,22.92
2019-02-28T11:17:41.511Z,22.23
2019-02-28T11:20:21.822Z,23.55
2019-02-28T11:22:47.867Z,22.68
2019-02-28T11:25:20.696Z,23.23
2019-02-28T11:27:53.720Z,23.94
2019-02-28T11:30:27.693Z,24.19
2019-02-28T11:33:03.318Z,24.02
2019-02-28T11:35:34.606Z,23.50
2019-02-28T11:38:07.202Z,22.04
2019-02-28T11:40:43.838Z,22.79
2019-02-28T11:43:15.775Z,22.33
2019-02-28T11:45:49.044Z,23.26
2019-02-28T11:48:21.320Z,22.63
2019-02-28T11:50:53.695Z,29.36
2019-02-28T11:53:25.468Z,25.74
2019-02-28T11:55:57.350Z,24.94
2019-02-28T11:58:30.450Z,27.45
2019-02-28T12:01:02.546Z,26.43
2019-02-28T12:03:35.550Z,24.49
2019-02-28T12:06:08.276Z,27.41
2019-02-28T12:08:41.643Z,25.19
2019-02-28T12:11:13.674Z,25.53
2019-02-28T12:13:45.886Z,24.45
2019-02-28T12:16:19.240Z,24.52
2019-02-28T12:18:51.322Z,24.42
2019-02-28T12:21:23.139Z,23.91
2019-02-28T12:23:57.359Z,25.59
2019-02-28T12:26:28.422Z,28.26
2019-02-28T12:29:00.202Z,26.97
2019-02-28T12:31:35.336Z,26.03
2019-02-28T12:34:05.294Z,27.69
2019-02-28T12:36:37.041Z,26.28
2019-02-28T12:39:10.487Z,27.20
2019-02-28T12:41:42.099Z,26.26
2019-02-28T12:44:15.391Z,26.32
2019-02-28T12:46:47.424Z,25.33
2019-02-28T12:49:22.219Z,27.23
2019-02-28T12:51:52.711Z,26.49
2019-02-28T12:54:25.949Z,27.92
2019-02-28T12:56:57.856Z,28.34
2019-02-28T12:59:29.581Z,27.99
2019-02-28T13:02:01.197Z,27.80
2019-02-28T13:04:35.867Z,28.40
2019-02-28T13:07:06.121Z,28.02
2019-02-28T13:09:38.178Z,26.82
2019-02-28T13:12:12.140Z,27.02
2019-02-28T13:14:43.670Z,27.47
2019-02-28T13:17:16.156Z,27.23
2019-02-28T13:19:47.999Z,28.32
2019-02-28T13:22:23.325Z,27.76
2019-02-28T13:24:53.413Z,27.46
2019-02-28T13:27:25.092Z,27.72
2019-02-28T13:29:56.700Z,27.07
2019-02-28T13:32:28.417Z,27.68
2019-02-28T13:35:03.071Z,27.19
2019-02-28T13:37:37.452Z,27.76
2019-02-28T13:40:09.470Z,27.54
2019-02-28T13:42:42.323Z,27.12
2019-02-28T13:45:22.161Z,28.40
2019-02-28T13:47:50.089Z,28.38
2019-02-28T13:50:25.868Z,27.88
2019-02-28T13:53:02.534Z,28.10
2019-02-28T13:55:31.064Z,28.24
2019-02-28T13:58:03.302Z,27.71
2019-02-28T14:00:35.293Z,27.21
2019-02-28T14:03:10.329Z,29.03
2019-02-28T14:05:44.223Z,31.28
2019-02-28T14:08:15.991Z,30.70
2019-02-28T14:10:48.019Z,29.96
2019-02-28T14:13:20.116Z,29.58
2019-02-28T14:15:53.080Z,31.28
2019-02-28T14:18:27.514Z,31.64
2019-02-28T14:21:03.177Z,32.26
2019-02-28T14:23:34.838Z,31.69
2019-02-28T14:26:07.442Z,31.71
2019-02-28T14:28:39.535Z,30.68
2019-02-28T14:31:14.008Z,32.69
2019-02-28T14:33:46.575Z,32.71
2019-02-28T14:36:21.550Z,32.65
2019-02-28T14:38:54.338Z,32.64
2019-02-28T14:41:28.447Z,33.15
2019-02-28T14:44:00.176Z,32.65
2019-02-28T14:46:34.652Z,31.86
2019-02-28T14:49:06.809Z,32.02
2019-02-28T14:51:40.734Z,33.85
2019-02-28T14:54:12.683Z,32.58
2019-02-28T14:56:45.676Z,32.09
2019-02-28T14:59:17.937Z,32.07
2019-02-28T15:01:53.192Z,32.19
2019-02-28T15:04:26.670Z,32.00
2019-02-28T15:07:03.043Z,32.19
2019-02-28T15:09:36.257Z,32.11
2019-02-28T15:12:13.963Z,32.15
2019-02-28T15:14:46.051Z,32.63
2019-02-28T15:17:18.134Z,32.43
2019-02-28T15:19:49.823Z,32.13
2019-02-28T15:22:21.781Z,32.72
2019-02-28T15:24:53.938Z,33.51
2019-02-28T15:27:27.100Z,33.00
2019-02-28T15:29:59.816Z,32.42
2019-02-28T15:32:33.952Z,32.37
2019-02-28T15:35:07.210Z,32.29
2019-02-28T15:37:40.168Z,33.19
2019-02-28T15:40:16.378Z,32.62
2019-02-28T15:42:49.263Z,32.51
2019-02-28T15:45:23.074Z,32.35
2019-02-28T15:48:00.241Z,32.92
2019-02-28T15:50:34.310Z,33.31
2019-02-28T15:53:11.280Z,33.91
2019-02-28T15:55:44.678Z,33.89
2019-02-28T15:58:16.794Z,34.37
2019-02-28T16:00:48.825Z,34.60
2019-02-28T16:03:23.897Z,34.47
2019-02-28T16:05:57.174Z,35.03
2019-02-28T16:08:30.085Z,35.40
2019-02-28T16:11:03.316Z,35.40
2019-02-28T16:13:35.458Z,35.49
2019-02-28T16:16:07.531Z,35.68
2019-02-28T16:18:40.655Z,35.34
2019-02-28T16:21:12.780Z,35.25
2019-02-28T16:23:45.186Z,34.97
2019-02-28T16:26:21.734Z,34.60
2019-02-28T16:28:52.800Z,34.69
2019-02-28T16:31:25.462Z,34.18
2019-02-28T16:34:04.896Z,34.17
2019-02-28T16:36:30.768Z,34.35
2019-02-28T16:39:02.794Z,33.93
2019-02-28T16:41:36.847Z,34.50
2019-02-28T16:44:09.156Z,35.15
2019-02-28T16:46:40.816Z,35.36
2019-02-28T16:49:12.983Z,35.42
2019-02-28T16:51:44.835Z,35.98
2019-02-28T16:54:19.305Z,36.15
2019-02-28T16:56:50.734Z,36.10
2019-02-28T16:59:22.596Z,36.13
2019-02-28T17:01:55.646Z,36.40
2019-02-28T17:04:27.847Z,36.46
2019-02-28T17:07:00.451Z,36.35
2019-02-28T17:09:50.637Z,36.66
2019-02-28T17:12:39.506Z,36.78
2019-02-28T17:15:29.539Z,36.59
2019-02-28T17:18:06.491Z,36.40
2019-02-28T17:20:40.754Z,36.30
2019-02-28T17:23:12.789Z,36.76
2019-02-28T17:25:45.164Z,36.92
2019-02-28T17:28:51.023Z,37.10
2019-02-28T17:31:44.573Z,37.36
2019-02-28T17:34:24.421Z,37.46
2019-02-28T17:36:57.189Z,38.18
2019-02-28T17:39:30.682Z,38.99
2019-02-28T17:42:08.600Z,39.39
2019-02-28T17:45:15.603Z,38.69
2019-02-28T17:48:35.758Z,39.16
2019-02-28T17:51:49.195Z,40.37
2019-02-28T17:54:59.183Z,40.66
2019-02-28T17:58:08.692Z,40.03
2019-02-28T18:01:46.243Z,40.48
2019-02-28T18:05:18.589Z,40.51
2019-02-28T18:08:44.858Z,41.48
2019-02-28T18:12:18.494Z,41.41
2019-02-28T18:15:22.962Z,42.30
2019-02-28T18:18:51.312Z,43.62
2019-02-28T18:22:12.853Z,43.71
2019-02-28T18:26:02.428Z,44.38
2019-02-28T18:29:40.556Z,43.52
2019-02-28T18:32:16.822Z,41.96
2019-02-28T18:34:52.740Z,42.52
2019-02-28T18:37:26.651Z,43.19
2019-02-28T18:40:01.662Z,43.85
2019-02-28T18:42:34.999Z,44.00
2019-02-28T18:45:09.721Z,44.55
2019-02-28T18:47:43.893Z,44.24
2019-02-28T18:50:17.904Z,45.30
2019-02-28T18:52:52.693Z,45.27
2019-02-28T18:55:34.643Z,44.30
2019-02-28T18:58:03.457Z,44.57
2019-02-28T19:00:37.913Z,44.05
2019-02-28T19:03:11.837Z,45.02
2019-02-28T19:05:45.115Z,45.82
2019-02-28T19:08:20.028Z,46.57
2019-02-28T19:10:55.069Z,48.20
2019-02-28T19:13:30.966Z,48.47
2019-02-28T19:16:05.045Z,46.50
2019-02-28T19:18:40.686Z,48.24
2019-02-28T19:21:15.674Z,47.69
2019-02-28T19:23:49.873Z,47.07
2019-02-28T19:26:23.617Z,47.68
2019-02-28T19:28:57.225Z,47.90
2019-02-28T19:31:31.014Z,46.70
2019-02-28T19:34:05.001Z,47.16
2019-02-28T19:36:39.905Z,46.69
2019-02-28T19:39:13.197Z,46.91
2019-02-28T19:41:46.963Z,47.53
2019-02-28T19:44:18.849Z,47.61
2019-02-28T19:46:51.323Z,47.38
2019-02-28T19:49:23.343Z,48.83
2019-02-28T19:51:56.140Z,49.10
2019-02-28T19:54:29.575Z,49.38
2019-02-28T19:57:02.915Z,48.97
2019-02-28T19:59:34.973Z,49.14
2019-02-28T20:02:07.513Z,49.05
2019-02-28T20:04:41.617Z,50.54
2019-02-28T20:07:16.556Z,51.68
2019-02-28T20:09:48.635Z,53.94
2019-02-28T20:12:20.629Z,53.27
2019-02-28T20:14:56.290Z,53.44
2019-02-28T20:17:28.750Z,52.00
2019-02-28T20:20:02.928Z,51.87
2019-02-28T20:22:36.069Z,51.23
2019-02-28T20:25:10.390Z,51.30
2019-02-28T20:27:44.455Z,51.59
2019-02-28T20:30:18.708Z,51.56
2019-02-28T20:32:51.870Z,51.67
2019-02-28T20:35:26.870Z,51.61
2019-02-28T20:37:59.938Z,51.25
2019-02-28T20:40:32.562Z,51.11
2019-02-28T20:43:04.989Z,51.73
2019-02-28T20:45:36.726Z,52.35
2019-02-28T20:48:09.134Z,53.11
2019-02-28T20:50:43.104Z,54.63
2019-02-28T20:53:15.278Z,55.11
2019-02-28T20:55:48.073Z,55.62
2019-02-28T20:58:19.780Z,56.12
2019-02-28T21:00:51.859Z,57.06
2019-02-28T21:03:24.389Z,60.22
2019-02-28T21:05:56.424Z,61.00
2019-02-28T21:08:28.398Z,59.07
2019-02-28T21:11:00.614Z,60.83
2019-02-28T21:13:32.393Z,60.04
2019-02-28T21:16:04.287Z,61.05
2019-02-28T21:18:36.146Z,61.10
2019-02-28T21:21:08.391Z,60.94
2019-02-28T21:23:40.634Z,60.64
2019-02-28T21:26:12.814Z,61.34
2019-02-28T21:28:44.811Z,62.43
2019-02-28T21:31:16.789Z,62.64
2019-02-28T21:33:49.018Z,63.20
2019-02-28T21:36:21.097Z,64.11
2019-02-28T21:38:53.312Z,64.74
2019-02-28T21:41:25.516Z,65.99
2019-02-28T21:43:58.897Z,66.02
2019-02-28T21:46:30.961Z,66.75
2019-02-28T21:49:03.426Z,65.69
2019-02-28T21:51:35.714Z,65.85
2019-02-28T21:54:08.883Z,66.43
2019-02-28T21:56:41.583Z,67.52
2019-02-28T21:59:13.613Z,68.39
2019-02-28T22:01:46.023Z,69.52
2019-02-28T22:04:18.131Z,70.45
2019-02-28T22:06:50.362Z,71.02
2019-02-28T22:09:22.414Z,71.87
2019-02-28T22:11:55.141Z,77.13
2019-02-28T22:14:27.480Z,76.84
2019-02-28T22:16:59.301Z,76.01
2019-02-28T22:19:31.284Z,77.82
2019-02-28T22:22:04.372Z,78.02
2019-02-28T22:24:36.312Z,77.55
2019-02-28T22:27:08.408Z,78.98
2019-02-28T22:29:40.650Z,78.82
2019-02-28T22:32:25.596Z,78.90
2019-02-28T22:35:16.168Z,77.44
2019-02-28T22:37:48.237Z,75.90
2019-02-28T22:40:21.592Z,75.73
2019-02-28T22:42:53.311Z,76.57
2019-02-28T22:45:25.017Z,76.66
2019-02-28T22:47:57.081Z,74.57
2019-02-28T22:50:29.099Z,74.01
2019-02-28T22:53:02.364Z,73.05
2019-02-28T22:55:34.055Z,71.73
2019-02-28T22:58:10.833Z,71.40
2019-02-28T23:01:14.541Z,71.49
2019-02-28T23:03:46.003Z,71.83
2019-02-28T23:06:18.684Z,72.45
2019-02-28T23:08:50.290Z,72.61
2019-02-28T23:11:22.931Z,72.30
2019-02-28T23:13:54.720Z,72.11
2019-02-28T23:16:26.997Z,72.03
2019-02-28T23:18:58.892Z,71.73
2019-02-28T23:21:30.624Z,70.66
2019-02-28T23:24:02.568Z,70.55
2019-02-28T23:26:56.106Z,70.41
2019-02-28T23:29:29.332Z,70.00
2019-02-28T23:32:44.013Z,72.19
2019-02-28T23:35:26.465Z,72.86
2019-02-28T23:37:58.079Z,76.68
2019-02-28T23:40:29.832Z,76.93
2019-02-28T23:43:01.437Z,76.73
2019-02-28T23:45:33.217Z,76.61
2019-02-28T23:48:05.038Z,75.96
2019-02-28T23:50:36.754Z,75.78
2019-02-28T23:53:08.829Z,75.50
2019-02-28T23:55:40.481Z,75.10
2019-02-28T23:58:12.068Z,75.22
